sensor_id;sensor_type;location;lat;lon;timestamp;P1;durP1;ratioP1;P2;durP2;ratioP2
13799;SDS011;6971;50.028;9.258;2023-04-06T00:02:30;12.60;;;8.37;;
13799;SDS011;6971;50.028;9.258;2023-04-06T00:07:31;10.83;;;8.30;;
13799;SDS011;6971;50.028;9.258;2023-04-06T00:12:33;11.00;;;8.50;;
13799;SDS011;6971;50.028;9.258;2023-04-06T00:17:33;11.47;;;8.80;;
13799;SDS011;6971;50.028;9.258;2023-04-06T00:22:34;11.83;;;8.60;;
13799;SDS011;6971;50.028;9.258;2023-04-06T00:27:34;9.77;;;7.97;;
13799;SDS011;6971;50.028;9.258;2023-04-06T00:32:35;12.23;;;8.27;;
13799;SDS011;6971;50.028;9.258;2023-04-06T00:37:35;10.27;;;8.83;;
13799;SDS011;6971;50.028;9.258;2023-04-06T00:42:36;8.93;;;7.77;;
13799;SDS011;6971;50.028;9.258;2023-04-06T00:47:36;12.27;;;8.73;;
13799;SDS011;6971;50.028;9.258;2023-04-06T00:52:37;11.23;;;8.40;;
13799;SDS011;6971;50.028;9.258;2023-04-06T00:57:37;9.40;;;8.27;;
13799;SDS011;6971;50.028;9.258;2023-04-06T01:02:37;10.93;;;8.27;;
13799;SDS011;6971;50.028;9.258;2023-04-06T01:07:38;10.80;;;8.33;;
13799;SDS011;6971;50.028;9.258;2023-04-06T01:12:38;10.43;;;7.60;;
13799;SDS011;6971;50.028;9.258;2023-04-06T01:17:39;12.77;;;8.30;;
13799;SDS011;6971;50.028;9.258;2023-04-06T01:22:40;15.67;;;10.93;;
13799;SDS011;6971;50.028;9.258;2023-04-06T01:27:40;11.73;;;8.87;;
13799;SDS011;6971;50.028;9.258;2023-04-06T01:32:41;9.60;;;7.80;;
13799;SDS011;6971;50.028;9.258;2023-04-06T01:37:41;10.23;;;7.67;;
13799;SDS011;6971;50.028;9.258;2023-04-06T01:42:42;14.63;;;8.03;;
13799;SDS011;6971;50.028;9.258;2023-04-06T01:47:42;9.00;;;7.70;;
13799;SDS011;6971;50.028;9.258;2023-04-06T01:52:42;9.40;;;7.83;;
13799;SDS011;6971;50.028;9.258;2023-04-06T01:57:43;9.70;;;8.60;;
13799;SDS011;6971;50.028;9.258;2023-04-06T02:02:43;10.10;;;7.90;;
13799;SDS011;6971;50.028;9.258;2023-04-06T02:07:43;10.10;;;7.55;;
13799;SDS011;6971;50.028;9.258;2023-04-06T02:12:44;11.87;;;8.00;;
13799;SDS011;6971;50.028;9.258;2023-04-06T02:17:44;10.73;;;8.00;;
13799;SDS011;6971;50.028;9.258;2023-04-06T02:22:45;11.30;;;7.77;;
13799;SDS011;6971;50.028;9.258;2023-04-06T02:27:45;9.83;;;8.10;;
13799;SDS011;6971;50.028;9.258;2023-04-06T02:32:45;10.05;;;8.65;;
13799;SDS011;6971;50.028;9.258;2023-04-06T02:37:46;12.07;;;8.03;;
13799;SDS011;6971;50.028;9.258;2023-04-06T02:42:46;14.13;;;9.83;;
13799;SDS011;6971;50.028;9.258;2023-04-06T02:47:46;11.90;;;8.83;;
13799;SDS011;6971;50.028;9.258;2023-04-06T02:52:47;12.90;;;8.90;;
13799;SDS011;6971;50.028;9.258;2023-04-06T02:57:47;13.63;;;9.68;;
13799;SDS011;6971;50.028;9.258;2023-04-06T03:02:47;10.87;;;8.67;;
13799;SDS011;6971;50.028;9.258;2023-04-06T03:07:48;11.37;;;8.73;;
13799;SDS011;6971;50.028;9.258;2023-04-06T03:12:48;11.17;;;9.43;;
13799;SDS011;6971;50.028;9.258;2023-04-06T03:17:48;12.77;;;9.73;;
13799;SDS011;6971;50.028;9.258;2023-04-06T03:22:49;12.57;;;9.52;;
13799;SDS011;6971;50.028;9.258;2023-04-06T03:27:49;14.65;;;10.52;;
13799;SDS011;6971;50.028;9.258;2023-04-06T03:32:49;12.13;;;10.27;;
13799;SDS011;6971;50.028;9.258;2023-04-06T03:37:49;15.63;;;10.27;;
13799;SDS011;6971;50.028;9.258;2023-04-06T03:42:50;17.80;;;11.00;;
13799;SDS011;6971;50.028;9.258;2023-04-06T03:47:50;11.20;;;9.73;;
13799;SDS011;6971;50.028;9.258;2023-04-06T03:52:51;15.40;;;10.60;;
13799;SDS011;6971;50.028;9.258;2023-04-06T03:57:51;14.57;;;10.88;;
13799;SDS011;6971;50.028;9.258;2023-04-06T04:02:51;13.53;;;10.43;;
13799;SDS011;6971;50.028;9.258;2023-04-06T04:07:52;16.43;;;10.53;;
13799;SDS011;6971;50.028;9.258;2023-04-06T04:12:52;15.47;;;11.40;;
13799;SDS011;6971;50.028;9.258;2023-04-06T04:17:52;16.37;;;11.73;;
13799;SDS011;6971;50.028;9.258;2023-04-06T04:22:53;14.57;;;11.17;;
13799;SDS011;6971;50.028;9.258;2023-04-06T04:27:53;16.23;;;11.97;;
13799;SDS011;6971;50.028;9.258;2023-04-06T04:32:53;15.10;;;10.93;;
13799;SDS011;6971;50.028;9.258;2023-04-06T04:37:54;14.13;;;10.83;;
13799;SDS011;6971;50.028;9.258;2023-04-06T04:42:54;16.13;;;10.63;;
13799;SDS011;6971;50.028;9.258;2023-04-06T04:47:55;12.87;;;10.53;;
13799;SDS011;6971;50.028;9.258;2023-04-06T04:52:55;15.03;;;10.93;;
13799;SDS011;6971;50.028;9.258;2023-04-06T04:57:55;15.37;;;11.20;;
13799;SDS011;6971;50.028;9.258;2023-04-06T05:02:56;16.63;;;11.20;;
13799;SDS011;6971;50.028;9.258;2023-04-06T05:07:56;15.97;;;11.97;;
13799;SDS011;6971;50.028;9.258;2023-04-06T05:12:56;14.47;;;11.20;;
13799;SDS011;6971;50.028;9.258;2023-04-06T05:17:57;17.73;;;12.07;;
13799;SDS011;6971;50.028;9.258;2023-04-06T05:22:57;15.63;;;11.87;;
13799;SDS011;6971;50.028;9.258;2023-04-06T05:27:57;16.50;;;11.23;;
13799;SDS011;6971;50.028;9.258;2023-04-06T05:32:58;14.70;;;10.97;;
13799;SDS011;6971;50.028;9.258;2023-04-06T05:37:59;16.53;;;12.67;;
13799;SDS011;6971;50.028;9.258;2023-04-06T05:43:00;13.77;;;11.13;;
13799;SDS011;6971;50.028;9.258;2023-04-06T05:48:01;14.07;;;10.57;;
13799;SDS011;6971;50.028;9.258;2023-04-06T05:53:02;15.63;;;11.60;;
13799;SDS011;6971;50.028;9.258;2023-04-06T05:58:02;15.13;;;11.40;;
13799;SDS011;6971;50.028;9.258;2023-04-06T06:03:05;13.73;;;11.03;;
13799;SDS011;6971;50.028;9.258;2023-04-06T06:08:06;15.90;;;11.70;;
13799;SDS011;6971;50.028;9.258;2023-04-06T06:13:06;13.00;;;10.50;;
13799;SDS011;6971;50.028;9.258;2023-04-06T06:18:06;15.00;;;11.33;;
13799;SDS011;6971;50.028;9.258;2023-04-06T06:23:07;13.63;;;10.83;;
13799;SDS011;6971;50.028;9.258;2023-04-06T06:28:07;13.43;;;10.73;;
13799;SDS011;6971;50.028;9.258;2023-04-06T06:33:07;12.80;;;10.03;;
13799;SDS011;6971;50.028;9.258;2023-04-06T06:38:08;12.23;;;9.60;;
13799;SDS011;6971;50.028;9.258;2023-04-06T06:43:08;13.00;;;9.87;;
13799;SDS011;6971;50.028;9.258;2023-04-06T06:48:11;15.10;;;11.30;;
13799;SDS011;6971;50.028;9.258;2023-04-06T06:53:14;13.40;;;10.40;;
13799;SDS011;6971;50.028;9.258;2023-04-06T06:58:17;12.37;;;10.50;;
13799;SDS011;6971;50.028;9.258;2023-04-06T07:03:18;13.03;;;10.80;;
13799;SDS011;6971;50.028;9.258;2023-04-06T07:08:19;13.63;;;11.03;;
13799;SDS011;6971;50.028;9.258;2023-04-06T07:13:20;16.30;;;12.77;;
13799;SDS011;6971;50.028;9.258;2023-04-06T07:18:22;15.90;;;13.23;;
13799;SDS011;6971;50.028;9.258;2023-04-06T07:23:23;14.43;;;11.90;;
13799;SDS011;6971;50.028;9.258;2023-04-06T07:28:23;15.97;;;12.53;;
13799;SDS011;6971;50.028;9.258;2023-04-06T07:33:24;17.27;;;13.03;;
13799;SDS011;6971;50.028;9.258;2023-04-06T07:38:25;14.93;;;11.77;;
13799;SDS011;6971;50.028;9.258;2023-04-06T07:43:25;16.17;;;11.90;;
13799;SDS011;6971;50.028;9.258;2023-04-06T07:48:25;16.27;;;13.20;;
13799;SDS011;6971;50.028;9.258;2023-04-06T07:53:26;15.87;;;12.60;;
13799;SDS011;6971;50.028;9.258;2023-04-06T07:58:26;11.25;;;9.90;;
13799;SDS011;6971;50.028;9.258;2023-04-06T08:03:26;12.20;;;8.63;;
13799;SDS011;6971;50.028;9.258;2023-04-06T08:08:27;8.97;;;7.87;;
13799;SDS011;6971;50.028;9.258;2023-04-06T08:13:28;10.00;;;7.23;;
13799;SDS011;6971;50.028;9.258;2023-04-06T08:18:28;10.07;;;8.10;;
13799;SDS011;6971;50.028;9.258;2023-04-06T08:23:29;7.73;;;7.00;;
13799;SDS011;6971;50.028;9.258;2023-04-06T08:28:30;8.27;;;7.00;;
13799;SDS011;6971;50.028;9.258;2023-04-06T08:33:30;9.23;;;6.87;;
13799;SDS011;6971;50.028;9.258;2023-04-06T08:38:31;9.47;;;7.10;;
13799;SDS011;6971;50.028;9.258;2023-04-06T08:43:31;7.68;;;6.25;;
13799;SDS011;6971;50.028;9.258;2023-04-06T08:48:31;9.70;;;7.27;;
13799;SDS011;6971;50.028;9.258;2023-04-06T08:53:33;8.83;;;7.50;;
13799;SDS011;6971;50.028;9.258;2023-04-06T08:58:37;11.07;;;7.57;;
13799;SDS011;6971;50.028;9.258;2023-04-06T09:03:40;10.97;;;7.83;;
13799;SDS011;6971;50.028;9.258;2023-04-06T09:08:40;11.27;;;8.40;;
13799;SDS011;6971;50.028;9.258;2023-04-06T09:13:45;11.27;;;7.70;;
13799;SDS011;6971;50.028;9.258;2023-04-06T09:18:47;7.80;;;7.00;;
13799;SDS011;6971;50.028;9.258;2023-04-06T09:23:57;10.43;;;8.87;;
13799;SDS011;6971;50.028;9.258;2023-04-06T09:28:58;9.37;;;6.50;;
13799;SDS011;6971;50.028;9.258;2023-04-06T09:34:01;9.47;;;6.73;;
13799;SDS011;6971;50.028;9.258;2023-04-06T09:39:02;11.77;;;7.43;;
13799;SDS011;6971;50.028;9.258;2023-04-06T09:44:10;10.07;;;8.27;;
13799;SDS011;6971;50.028;9.258;2023-04-06T09:49:11;10.20;;;7.90;;
13799;SDS011;6971;50.028;9.258;2023-04-06T09:54:15;12.23;;;8.50;;
13799;SDS011;6971;50.028;9.258;2023-04-06T10:09:44;12.23;;;8.80;;
13799;SDS011;6971;50.028;9.258;2023-04-06T10:14:46;13.27;;;8.83;;
13799;SDS011;6971;50.028;9.258;2023-04-06T10:20:21;12.83;;;8.70;;
13799;SDS011;6971;50.028;9.258;2023-04-06T10:25:33;10.07;;;7.97;;
13799;SDS011;6971;50.028;9.258;2023-04-06T10:30:34;10.30;;;8.20;;
13799;SDS011;6971;50.028;9.258;2023-04-06T10:35:36;13.20;;;7.83;;
13799;SDS011;6971;50.028;9.258;2023-04-06T10:40:38;12.03;;;9.00;;
13799;SDS011;6971;50.028;9.258;2023-04-06T10:45:40;12.73;;;7.83;;
13799;SDS011;6971;50.028;9.258;2023-04-06T10:50:41;11.00;;;8.07;;
13799;SDS011;6971;50.028;9.258;2023-04-06T10:55:43;10.27;;;7.97;;
13799;SDS011;6971;50.028;9.258;2023-04-06T11:00:48;10.30;;;7.97;;
13799;SDS011;6971;50.028;9.258;2023-04-06T11:05:49;11.87;;;8.60;;
13799;SDS011;6971;50.028;9.258;2023-04-06T11:10:51;10.40;;;7.57;;
13799;SDS011;6971;50.028;9.258;2023-04-06T11:16:19;10.03;;;8.50;;
13799;SDS011;6971;50.028;9.258;2023-04-06T11:21:40;15.47;;;9.00;;
13799;SDS011;6971;50.028;9.258;2023-04-06T11:26:49;18.23;;;13.23;;
13799;SDS011;6971;50.028;9.258;2023-04-06T11:31:53;13.20;;;8.53;;
13799;SDS011;6971;50.028;9.258;2023-04-06T11:36:59;9.33;;;8.23;;
13799;SDS011;6971;50.028;9.258;2023-04-06T11:42:21;12.17;;;9.70;;
13799;SDS011;6971;50.028;9.258;2023-04-06T11:47:29;8.80;;;7.90;;
13799;SDS011;6971;50.028;9.258;2023-04-06T11:52:30;11.90;;;7.97;;
13799;SDS011;6971;50.028;9.258;2023-04-06T11:57:33;12.10;;;8.07;;
13799;SDS011;6971;50.028;9.258;2023-04-06T12:02:33;10.23;;;7.20;;
13799;SDS011;6971;50.028;9.258;2023-04-06T12:07:34;8.47;;;7.47;;
13799;SDS011;6971;50.028;9.258;2023-04-06T12:12:35;9.80;;;7.67;;
13799;SDS011;6971;50.028;9.258;2023-04-06T12:17:35;9.00;;;8.00;;
13799;SDS011;6971;50.028;9.258;2023-04-06T12:22:36;11.13;;;8.67;;
13799;SDS011;6971;50.028;9.258;2023-04-06T12:27:37;10.13;;;8.70;;
13799;SDS011;6971;50.028;9.258;2023-04-06T12:32:37;8.97;;;6.57;;
13799;SDS011;6971;50.028;9.258;2023-04-06T12:37:37;7.97;;;6.93;;
13799;SDS011;6971;50.028;9.258;2023-04-06T12:42:38;8.43;;;7.03;;
13799;SDS011;6971;50.028;9.258;2023-04-06T12:47:40;8.47;;;7.10;;
13799;SDS011;6971;50.028;9.258;2023-04-06T12:52:40;10.07;;;7.23;;
13799;SDS011;6971;50.028;9.258;2023-04-06T12:57:42;8.60;;;7.03;;
13799;SDS011;6971;50.028;9.258;2023-04-06T13:02:42;10.80;;;7.83;;
13799;SDS011;6971;50.028;9.258;2023-04-06T13:07:46;11.63;;;9.47;;
13799;SDS011;6971;50.028;9.258;2023-04-06T13:12:47;11.63;;;7.27;;
13799;SDS011;6971;50.028;9.258;2023-04-06T13:17:47;11.83;;;7.67;;
13799;SDS011;6971;50.028;9.258;2023-04-06T13:22:48;13.53;;;8.33;;
13799;SDS011;6971;50.028;9.258;2023-04-06T13:27:48;9.35;;;7.95;;
13799;SDS011;6971;50.028;9.258;2023-04-06T13:32:48;9.87;;;7.67;;
13799;SDS011;6971;50.028;9.258;2023-04-06T13:37:49;10.53;;;7.40;;
13799;SDS011;6971;50.028;9.258;2023-04-06T13:42:52;10.17;;;8.07;;
13799;SDS011;6971;50.028;9.258;2023-04-06T13:47:52;11.87;;;8.70;;
13799;SDS011;6971;50.028;9.258;2023-04-06T13:52:53;12.47;;;8.33;;
13799;SDS011;6971;50.028;9.258;2023-04-06T13:57:53;12.10;;;8.20;;
13799;SDS011;6971;50.028;9.258;2023-04-06T14:02:55;10.23;;;7.90;;
13799;SDS011;6971;50.028;9.258;2023-04-06T14:07:55;11.37;;;8.80;;
13799;SDS011;6971;50.028;9.258;2023-04-06T14:12:55;9.10;;;6.53;;
13799;SDS011;6971;50.028;9.258;2023-04-06T14:17:58;8.63;;;7.17;;
13799;SDS011;6971;50.028;9.258;2023-04-06T14:23:01;11.30;;;8.07;;
13799;SDS011;6971;50.028;9.258;2023-04-06T14:28:02;9.67;;;6.77;;
13799;SDS011;6971;50.028;9.258;2023-04-06T14:33:03;9.90;;;7.37;;
13799;SDS011;6971;50.028;9.258;2023-04-06T14:38:03;9.47;;;7.63;;
13799;SDS011;6971;50.028;9.258;2023-04-06T14:43:04;10.57;;;7.63;;
13799;SDS011;6971;50.028;9.258;2023-04-06T14:48:05;9.43;;;7.40;;
13799;SDS011;6971;50.028;9.258;2023-04-06T14:53:06;8.70;;;6.40;;
13799;SDS011;6971;50.028;9.258;2023-04-06T14:58:06;9.23;;;7.40;;
13799;SDS011;6971;50.028;9.258;2023-04-06T15:03:07;7.33;;;6.53;;
13799;SDS011;6971;50.028;9.258;2023-04-06T15:08:07;10.00;;;6.63;;
13799;SDS011;6971;50.028;9.258;2023-04-06T15:13:11;9.57;;;6.67;;
13799;SDS011;6971;50.028;9.258;2023-04-06T15:18:14;11.83;;;6.70;;
13799;SDS011;6971;50.028;9.258;2023-04-06T15:23:15;9.83;;;6.70;;
13799;SDS011;6971;50.028;9.258;2023-04-06T15:28:15;10.17;;;6.90;;
13799;SDS011;6971;50.028;9.258;2023-04-06T15:33:15;7.37;;;6.00;;
13799;SDS011;6971;50.028;9.258;2023-04-06T15:38:17;6.87;;;5.83;;
13799;SDS011;6971;50.028;9.258;2023-04-06T15:43:17;6.77;;;5.37;;
13799;SDS011;6971;50.028;9.258;2023-04-06T15:48:17;6.07;;;5.40;;
13799;SDS011;6971;50.028;9.258;2023-04-06T15:53:18;9.67;;;6.77;;
13799;SDS011;6971;50.028;9.258;2023-04-06T15:58:18;6.87;;;6.10;;
13799;SDS011;6971;50.028;9.258;2023-04-06T16:03:19;8.83;;;6.30;;
13799;SDS011;6971;50.028;9.258;2023-04-06T16:08:20;9.30;;;7.20;;
13799;SDS011;6971;50.028;9.258;2023-04-06T16:13:20;10.30;;;8.70;;
13799;SDS011;6971;50.028;9.258;2023-04-06T16:18:21;7.33;;;6.40;;
13799;SDS011;6971;50.028;9.258;2023-04-06T16:23:21;29.13;;;17.47;;
13799;SDS011;6971;50.028;9.258;2023-04-06T16:28:22;8.87;;;7.20;;
13799;SDS011;6971;50.028;9.258;2023-04-06T16:33:24;8.63;;;6.00;;
13799;SDS011;6971;50.028;9.258;2023-04-06T16:38:24;7.43;;;5.37;;
13799;SDS011;6971;50.028;9.258;2023-04-06T16:43:29;8.33;;;7.10;;
13799;SDS011;6971;50.028;9.258;2023-04-06T16:48:29;9.43;;;8.43;;
13799;SDS011;6971;50.028;9.258;2023-04-06T16:53:29;11.63;;;8.87;;
13799;SDS011;6971;50.028;9.258;2023-04-06T16:58:31;8.07;;;7.27;;
13799;SDS011;6971;50.028;9.258;2023-04-06T17:03:32;7.83;;;6.67;;
13799;SDS011;6971;50.028;9.258;2023-04-06T17:08:33;9.77;;;6.80;;
13799;SDS011;6971;50.028;9.258;2023-04-06T17:13:34;8.67;;;7.37;;
13799;SDS011;6971;50.028;9.258;2023-04-06T17:18:34;9.83;;;7.40;;
13799;SDS011;6971;50.028;9.258;2023-04-06T17:23:35;7.17;;;6.30;;
13799;SDS011;6971;50.028;9.258;2023-04-06T17:28:36;11.03;;;8.80;;
13799;SDS011;6971;50.028;9.258;2023-04-06T17:33:39;8.60;;;5.40;;
13799;SDS011;6971;50.028;9.258;2023-04-06T17:38:40;4.40;;;3.70;;
13799;SDS011;6971;50.028;9.258;2023-04-06T17:43:43;6.33;;;4.20;;
13799;SDS011;6971;50.028;9.258;2023-04-06T17:48:43;4.47;;;3.60;;
13799;SDS011;6971;50.028;9.258;2023-04-06T17:53:45;6.10;;;4.20;;
13799;SDS011;6971;50.028;9.258;2023-04-06T17:58:46;10.67;;;6.70;;
13799;SDS011;6971;50.028;9.258;2023-04-06T18:03:46;5.27;;;3.73;;
13799;SDS011;6971;50.028;9.258;2023-04-06T18:08:46;7.07;;;3.73;;
13799;SDS011;6971;50.028;9.258;2023-04-06T18:13:47;4.90;;;4.30;;
13799;SDS011;6971;50.028;9.258;2023-04-06T18:18:47;5.93;;;3.73;;
13799;SDS011;6971;50.028;9.258;2023-04-06T18:23:48;7.70;;;4.13;;
13799;SDS011;6971;50.028;9.258;2023-04-06T18:28:48;6.07;;;4.20;;
13799;SDS011;6971;50.028;9.258;2023-04-06T18:33:51;5.57;;;3.60;;
13799;SDS011;6971;50.028;9.258;2023-04-06T18:38:51;4.87;;;3.83;;
13799;SDS011;6971;50.028;9.258;2023-04-06T18:43:51;7.73;;;4.20;;
13799;SDS011;6971;50.028;9.258;2023-04-06T18:48:52;5.37;;;4.33;;
13799;SDS011;6971;50.028;9.258;2023-04-06T18:53:52;7.83;;;4.53;;
13799;SDS011;6971;50.028;9.258;2023-04-06T18:58:52;7.13;;;4.90;;
13799;SDS011;6971;50.028;9.258;2023-04-06T19:03:53;8.00;;;4.20;;
13799;SDS011;6971;50.028;9.258;2023-04-06T19:08:55;7.23;;;4.07;;
13799;SDS011;6971;50.028;9.258;2023-04-06T19:13:55;6.50;;;4.40;;
13799;SDS011;6971;50.028;9.258;2023-04-06T19:18:55;5.57;;;3.73;;
13799;SDS011;6971;50.028;9.258;2023-04-06T19:23:56;6.17;;;5.57;;
13799;SDS011;6971;50.028;9.258;2023-04-06T19:28:57;7.07;;;4.63;;
13799;SDS011;6971;50.028;9.258;2023-04-06T19:33:57;9.13;;;7.03;;
13799;SDS011;6971;50.028;9.258;2023-04-06T19:38:58;10.20;;;7.13;;
13799;SDS011;6971;50.028;9.258;2023-04-06T19:43:58;8.20;;;6.67;;
13799;SDS011;6971;50.028;9.258;2023-04-06T19:48:59;8.07;;;5.40;;
13799;SDS011;6971;50.028;9.258;2023-04-06T19:54:00;7.03;;;5.27;;
13799;SDS011;6971;50.028;9.258;2023-04-06T19:59:00;5.60;;;4.67;;
13799;SDS011;6971;50.028;9.258;2023-04-06T20:04:01;8.27;;;5.23;;
13799;SDS011;6971;50.028;9.258;2023-04-06T20:09:01;7.70;;;5.30;;
13799;SDS011;6971;50.028;9.258;2023-04-06T20:14:01;6.60;;;4.77;;
13799;SDS011;6971;50.028;9.258;2023-04-06T20:19:02;5.00;;;3.90;;
13799;SDS011;6971;50.028;9.258;2023-04-06T20:24:02;7.40;;;4.93;;
13799;SDS011;6971;50.028;9.258;2023-04-06T20:29:02;4.40;;;4.00;;
13799;SDS011;6971;50.028;9.258;2023-04-06T20:34:03;4.40;;;4.00;;
13799;SDS011;6971;50.028;9.258;2023-04-06T20:39:03;5.33;;;4.60;;
13799;SDS011;6971;50.028;9.258;2023-04-06T20:44:03;6.60;;;4.60;;
13799;SDS011;6971;50.028;9.258;2023-04-06T20:49:04;7.43;;;5.70;;
13799;SDS011;6971;50.028;9.258;2023-04-06T20:54:04;7.00;;;6.30;;
13799;SDS011;6971;50.028;9.258;2023-04-06T20:59:04;10.13;;;6.57;;
13799;SDS011;6971;50.028;9.258;2023-04-06T21:04:05;11.10;;;8.50;;
13799;SDS011;6971;50.028;9.258;2023-04-06T21:09:05;10.97;;;7.50;;
13799;SDS011;6971;50.028;9.258;2023-04-06T21:14:05;11.47;;;8.77;;
13799;SDS011;6971;50.028;9.258;2023-04-06T21:19:08;11.40;;;7.90;;
13799;SDS011;6971;50.028;9.258;2023-04-06T21:24:08;13.73;;;9.27;;
13799;SDS011;6971;50.028;9.258;2023-04-06T21:29:08;9.80;;;8.80;;
13799;SDS011;6971;50.028;9.258;2023-04-06T21:34:10;12.73;;;7.97;;
13799;SDS011;6971;50.028;9.258;2023-04-06T21:39:11;11.53;;;9.63;;
13799;SDS011;6971;50.028;9.258;2023-04-06T21:44:11;11.97;;;9.37;;
13799;SDS011;6971;50.028;9.258;2023-04-06T21:49:11;11.10;;;9.80;;
13799;SDS011;6971;50.028;9.258;2023-04-06T21:54:12;13.30;;;10.90;;
13799;SDS011;6971;50.028;9.258;2023-04-06T21:59:12;12.03;;;10.13;;
13799;SDS011;6971;50.028;9.258;2023-04-06T22:04:14;14.53;;;11.23;;
13799;SDS011;6971;50.028;9.258;2023-04-06T22:09:15;14.33;;;12.00;;
13799;SDS011;6971;50.028;9.258;2023-04-06T22:14:25;15.70;;;11.50;;
13799;SDS011;6971;50.028;9.258;2023-04-06T22:19:25;15.70;;;12.47;;
13799;SDS011;6971;50.028;9.258;2023-04-06T22:24:26;17.43;;;13.20;;
13799;SDS011;6971;50.028;9.258;2023-04-06T22:29:26;17.73;;;13.33;;
13799;SDS011;6971;50.028;9.258;2023-04-06T22:34:26;16.60;;;14.00;;
13799;SDS011;6971;50.028;9.258;2023-04-06T22:39:27;18.57;;;13.43;;
13799;SDS011;6971;50.028;9.258;2023-04-06T22:44:27;20.77;;;14.37;;
13799;SDS011;6971;50.028;9.258;2023-04-06T22:49:27;18.97;;;14.30;;
13799;SDS011;6971;50.028;9.258;2023-04-06T22:54:27;21.03;;;15.60;;
13799;SDS011;6971;50.028;9.258;2023-04-06T22:59:28;23.40;;;15.93;;
13799;SDS011;6971;50.028;9.258;2023-04-06T23:04:28;15.80;;;12.83;;
13799;SDS011;6971;50.028;9.258;2023-04-06T23:09:29;14.63;;;12.27;;
13799;SDS011;6971;50.028;9.258;2023-04-06T23:14:29;15.43;;;12.67;;
13799;SDS011;6971;50.028;9.258;2023-04-06T23:19:29;15.90;;;13.07;;
13799;SDS011;6971;50.028;9.258;2023-04-06T23:24:30;20.00;;;13.43;;
13799;SDS011;6971;50.028;9.258;2023-04-06T23:29:30;14.33;;;12.67;;
13799;SDS011;6971;50.028;9.258;2023-04-06T23:34:31;14.93;;;11.40;;
13799;SDS011;6971;50.028;9.258;2023-04-06T23:39:31;15.00;;;10.80;;
13799;SDS011;6971;50.028;9.258;2023-04-06T23:44:31;11.20;;;9.77;;
13799;SDS011;6971;50.028;9.258;2023-04-06T23:49:32;14.17;;;10.03;;
13799;SDS011;6971;50.028;9.258;2023-04-06T23:54:33;11.87;;;9.17;;
13799;SDS011;6971;50.028;9.258;2023-04-06T23:59:33;9.50;;;8.07;;
